Time;durP1;ratioP1;P1;durP2;ratioP2;P2;SDS_P1;SDS_P2;PMS_P1;PMS_P2;Temp;Humidity;BMP_temperature;BMP_pressure;BME280_temperature;BME280_humidity;BME280_pressure;Samples;Min_cycle;Max_cycle;Signal;HPM_P1;HPM_P2
2021/07/22 00:00:02;;;;;;;2.22;2.03;;;19.00;99.90;;;;;;4862490;29;20412;-78
2021/07/22 00:02:37;;;;;;;2.00;1.90;;;19.00;99.90;;;;;;4850466;29;20416;-80
2021/07/22 00:05:05;;;;;;;2.38;1.98;;;19.00;99.90;;;;;;4869364;29;20472;-79
2021/07/22 00:07:31;;;;;;;1.80;1.70;;;19.00;99.90;;;;;;4848972;29;20831;-79
2021/07/22 00:09:57;;;;;;;2.40;2.20;;;19.10;99.90;;;;;;4853931;29;20414;-79
2021/07/22 00:12:23;;;;;;;2.55;2.30;;;19.00;99.90;;;;;;4855478;29;21482;-79
2021/07/22 00:14:52;;;;;;;1.98;1.85;;;18.80;99.90;;;;;;4826491;29;20418;-78
2021/07/22 00:17:18;;;;;;;2.63;2.17;;;19.00;99.90;;;;;;4841095;29;20452;-78
2021/07/22 00:19:44;;;;;;;2.38;1.85;;;18.80;99.90;;;;;;4869709;29;20412;-79
2021/07/22 00:22:11;;;;;;;2.30;2.10;;;19.00;99.90;;;;;;4857612;29;20422;-80
2021/07/22 00:24:37;;;;;;;2.33;2.17;;;18.90;99.90;;;;;;4818217;29;20410;-80
2021/07/22 00:27:06;;;;;;;2.28;1.92;;;18.80;99.90;;;;;;4861867;29;20416;-79
2021/07/22 00:29:38;;;;;;;2.88;2.47;;;18.80;99.90;;;;;;4873332;29;20421;-79
2021/07/22 00:32:05;;;;;;;2.15;1.95;;;18.70;99.90;;;;;;4850590;29;20776;-78
2021/07/22 00:34:31;;;;;;;2.60;2.03;;;18.90;99.90;;;;;;4842606;29;20413;-79
2021/07/22 00:36:58;;;;;;;2.25;2.00;;;18.70;99.90;;;;;;4841620;29;20455;-79
2021/07/22 00:39:24;;;;;;;1.93;1.80;;;18.80;99.90;;;;;;4838945;29;20950;-78
2021/07/22 00:41:52;;;;;;;2.93;2.30;;;19.00;99.90;;;;;;4837907;29;20941;-79
2021/07/22 00:44:19;;;;;;;2.83;2.27;;;18.90;99.90;;;;;;4852632;29;20521;-79
2021/07/22 00:46:45;;;;;;;2.00;1.90;;;18.90;99.90;;;;;;4882169;29;20519;-79
2021/07/22 00:49:15;;;;;;;2.57;2.37;;;18.90;99.90;;;;;;4854888;29;20417;-79
2021/07/22 00:51:41;;;;;;;2.90;2.60;;;18.90;99.90;;;;;;4856012;29;20424;-79
2021/07/22 00:54:10;;;;;;;2.38;2.17;;;18.90;99.90;;;;;;4861497;29;20433;-79
2021/07/22 00:56:40;;;;;;;2.43;2.03;;;18.90;99.90;;;;;;4850299;29;20421;-79
2021/07/22 00:59:07;;;;;;;2.20;2.10;;;18.90;99.90;;;;;;4848490;29;20416;-79
2021/07/22 01:01:35;;;;;;;2.10;1.95;;;18.90;99.90;;;;;;4865618;29;20419;-78
2021/07/22 01:04:01;;;;;;;2.13;2.03;;;18.80;99.90;;;;;;4846127;29;20422;-79
2021/07/22 01:06:27;;;;;;;2.25;2.05;;;18.90;99.90;;;;;;4844826;29;20411;-79
2021/07/22 01:08:55;;;;;;;2.22;2.00;;;18.90;99.90;;;;;;4855444;29;20959;-78
2021/07/22 01:11:28;;;;;;;2.60;2.30;;;18.90;99.90;;;;;;4874948;29;20426;-79
2021/07/22 01:13:55;;;;;;;3.22;2.22;;;18.90;99.90;;;;;;4860805;29;20418;-79
2021/07/22 01:16:22;;;;;;;2.45;2.10;;;18.80;99.90;;;;;;4853094;29;20517;-79
2021/07/22 01:18:48;;;;;;;3.75;2.28;;;18.80;99.90;;;;;;4852167;29;20411;-79
2021/07/22 01:21:15;;;;;;;2.50;2.13;;;18.80;99.90;;;;;;4877982;29;20420;-79
2021/07/22 01:23:41;;;;;;;3.38;2.10;;;18.80;99.90;;;;;;4840497;29;20396;-79
2021/07/22 01:26:40;;;;;;;3.08;2.78;;;18.80;99.90;;;;;;4861292;29;20491;-79
2021/07/22 01:29:20;;;;;;;2.10;2.00;;;18.80;99.90;;;;;;4864710;29;20781;-79
2021/07/22 01:31:47;;;;;;;2.78;2.15;;;18.80;99.90;;;;;;4847235;29;20977;-79
2021/07/22 01:34:14;;;;;;;2.10;2.00;;;18.70;99.90;;;;;;4863698;29;20921;-79
2021/07/22 01:36:41;;;;;;;2.83;2.60;;;18.90;99.90;;;;;;4805327;29;20462;-78
2021/07/22 01:39:08;;;;;;;2.60;2.00;;;18.80;99.90;;;;;;4871042;29;20918;-79
2021/07/22 01:41:37;;;;;;;3.00;2.50;;;18.80;99.90;;;;;;4878379;29;20904;-79
2021/07/22 01:44:07;;;;;;;4.55;2.80;;;18.60;99.90;;;;;;4854100;29;20551;-79
2021/07/22 01:46:33;;;;;;;2.67;2.20;;;18.90;99.90;;;;;;4822587;29;20416;-78
2021/07/22 01:49:00;;;;;;;2.60;2.40;;;18.80;99.90;;;;;;4826400;29;20884;-78
2021/07/22 01:51:28;;;;;;;2.75;2.55;;;18.70;99.90;;;;;;4852760;29;20495;-79
2021/07/22 01:53:59;;;;;;;2.60;2.40;;;18.70;99.90;;;;;;4839172;29;20633;-78
2021/07/22 01:56:28;;;;;;;2.00;1.90;;;18.60;99.90;;;;;;4860728;29;20783;-78
2021/07/22 01:58:55;;;;;;;2.45;2.20;;;18.80;99.90;;;;;;4845247;29;20483;-78
2021/07/22 02:01:24;;;;;;;2.58;2.38;;;18.70;99.90;;;;;;4856895;29;20488;-81
2021/07/22 02:03:55;;;;;;;2.85;2.60;;;18.70;99.90;;;;;;4860403;29;20498;-78
2021/07/22 02:06:20;;;;;;;2.97;2.50;;;18.60;99.90;;;;;;4875780;29;20523;-78
2021/07/22 02:08:51;;;;;;;3.47;2.20;;;18.60;99.90;;;;;;4862855;29;20425;-78
2021/07/22 02:11:17;;;;;;;2.90;2.60;;;18.60;99.90;;;;;;4855227;29;20420;-78
2021/07/22 02:13:43;;;;;;;2.65;2.45;;;18.50;99.90;;;;;;4862884;29;20415;-78
2021/07/22 02:16:09;;;;;;;2.83;2.60;;;18.50;99.90;;;;;;4863793;29;20463;-78
2021/07/22 02:18:36;;;;;;;2.97;2.70;;;18.60;99.90;;;;;;4850583;29;20428;-78
2021/07/22 02:21:08;;;;;;;2.70;2.50;;;18.50;99.90;;;;;;4862407;29;20408;-78
2021/07/22 02:23:37;;;;;;;5.90;2.70;;;18.60;99.90;;;;;;4867119;29;20946;-78
2021/07/22 02:26:21;;;;;;;4.18;2.85;;;18.50;99.90;;;;;;4852609;29;20422;-80
2021/07/22 02:28:50;;;;;;;2.92;2.72;;;18.50;99.90;;;;;;4850930;29;20430;-78
2021/07/22 02:31:16;;;;;;;2.63;2.42;;;18.50;99.90;;;;;;4855686;29;20415;-80
2021/07/22 02:33:43;;;;;;;3.13;2.83;;;18.50;99.90;;;;;;4856990;29;20406;-80
2021/07/22 02:36:10;;;;;;;3.03;2.80;;;18.50;99.90;;;;;;4860450;29;20414;-81
2021/07/22 02:39:00;;;;;;;3.67;2.72;;;18.40;99.90;;;;;;4874198;29;20419;-79
2021/07/22 02:41:29;;;;;;;3.15;2.85;;;18.60;99.90;;;;;;4857618;29;20915;-79
2021/07/22 02:43:57;;;;;;;2.78;2.50;;;18.60;99.90;;;;;;4859279;29;20487;-78
2021/07/22 02:46:26;;;;;;;2.58;2.38;;;18.60;99.90;;;;;;4835703;29;20404;-78
2021/07/22 02:49:00;;;;;;;2.40;2.20;;;18.40;99.90;;;;;;4822102;29;20577;-78
2021/07/22 02:51:30;;;;;;;2.60;2.40;;;18.50;99.90;;;;;;4847382;29;20418;-79
2021/07/22 02:54:00;;;;;;;2.78;2.58;;;18.50;99.90;;;;;;4864076;29;20401;-80
2021/07/22 02:56:27;;;;;;;2.72;2.53;;;18.50;99.90;;;;;;4864342;29;20407;-80
2021/07/22 02:58:58;;;;;;;2.90;2.60;;;18.70;99.90;;;;;;4845007;29;20416;-79
2021/07/22 03:01:26;;;;;;;3.72;3.40;;;18.50;99.90;;;;;;4819237;29;20954;-78
2021/07/22 03:03:52;;;;;;;3.88;3.35;;;18.60;99.90;;;;;;4854798;29;20419;-77
2021/07/22 03:06:20;;;;;;;3.15;2.90;;;18.40;99.90;;;;;;4854575;29;20413;-78
2021/07/22 03:08:53;;;;;;;3.00;2.53;;;18.30;99.90;;;;;;4867466;29;20414;-78
2021/07/22 03:11:20;;;;;;;4.47;2.65;;;18.20;99.90;;;;;;4868601;29;20446;-78
2021/07/22 03:13:47;;;;;;;3.60;3.17;;;18.30;99.90;;;;;;4860460;29;20422;-78
2021/07/22 03:16:14;;;;;;;3.38;2.65;;;18.30;99.90;;;;;;4820004;29;20444;-78
2021/07/22 03:19:15;;;;;;;3.20;2.58;;;18.30;99.90;;;;;;4838822;29;20452;-79
2021/07/22 03:22:02;;;;;;;3.10;2.85;;;18.30;99.90;;;;;;4856402;29;20415;-79
2021/07/22 03:24:51;;;;;;;3.33;2.97;;;18.30;99.90;;;;;;4848093;29;20837;-79
2021/07/22 03:27:37;;;;;;;6.05;3.47;;;18.20;99.90;;;;;;4841883;29;20414;-79
2021/07/22 03:30:04;;;;;;;3.70;3.30;;;18.10;99.90;;;;;;4869742;29;20410;-79
2021/07/22 03:32:37;;;;;;;4.38;2.95;;;18.20;99.90;;;;;;4876917;29;20971;-78
2021/07/22 03:35:04;;;;;;;4.47;3.33;;;18.30;99.90;;;;;;4871187;29;23304;-78
2021/07/22 03:37:36;;;;;;;3.90;3.50;;;18.20;99.90;;;;;;4854528;29;20430;-78
2021/07/22 03:40:07;;;;;;;3.05;2.70;;;18.20;99.90;;;;;;4839240;29;20417;-79
2021/07/22 03:42:34;;;;;;;3.22;2.92;;;18.10;99.90;;;;;;4827800;29;20943;-79
2021/07/22 03:45:13;;;;;;;3.35;3.05;;;18.10;99.90;;;;;;4850006;29;20808;-78
2021/07/22 03:47:43;;;;;;;3.97;3.25;;;18.20;99.90;;;;;;4835268;29;20461;-76
2021/07/22 03:50:10;;;;;;;2.83;2.60;;;18.30;99.90;;;;;;4855416;29;20432;-78
2021/07/22 03:52:41;;;;;;;3.53;3.22;;;18.20;99.90;;;;;;4825748;29;20424;-78
2021/07/22 03:55:08;;;;;;;4.97;3.85;;;18.20;99.90;;;;;;4852910;29;20413;-78
2021/07/22 03:57:57;;;;;;;4.47;3.72;;;18.30;99.90;;;;;;4875686;29;20564;-78
2021/07/22 04:00:24;;;;;;;3.77;3.37;;;18.20;99.90;;;;;;4870074;29;20432;-79
2021/07/22 04:03:01;;;;;;;3.78;3.38;;;18.10;99.90;;;;;;4872943;29;20415;-78
2021/07/22 04:05:30;;;;;;;3.70;3.03;;;18.10;99.90;;;;;;4884720;29;20420;-78
2021/07/22 04:07:57;;;;;;;3.53;2.50;;;18.00;99.90;;;;;;4870743;29;20417;-78
2021/07/22 04:10:34;;;;;;;2.88;2.67;;;18.10;99.90;;;;;;4874192;29;20420;-79
2021/07/22 04:13:22;;;;;;;3.65;3.33;;;18.30;99.90;;;;;;4853562;29;20444;-79
2021/07/22 04:15:58;;;;;;;4.00;3.28;;;18.30;99.90;;;;;;4886413;29;20547;-80
2021/07/22 04:18:39;;;;;;;3.17;2.87;;;18.20;99.90;;;;;;4847509;29;20930;-78
2021/07/22 04:21:18;;;;;;;4.88;4.10;;;18.30;99.90;;;;;;4872529;29;20505;-79
2021/07/22 04:23:54;;;;;;;3.47;2.35;;;18.20;99.90;;;;;;4856761;29;20488;-78
2021/07/22 04:26:38;;;;;;;5.88;3.50;;;18.50;99.90;;;;;;4873676;29;20439;-78
2021/07/22 04:29:15;;;;;;;4.00;3.60;;;18.30;99.90;;;;;;4848319;29;20413;-79
2021/07/22 04:31:42;;;;;;;4.17;3.77;;;18.30;99.90;;;;;;4855478;29;20422;-80
2021/07/22 04:34:24;;;;;;;5.23;3.60;;;18.30;99.90;;;;;;4858348;29;20406;-80
2021/07/22 04:37:10;;;;;;;3.10;2.90;;;18.40;99.90;;;;;;4883326;29;20487;-79
2021/07/22 04:40:06;;;;;;;4.35;3.38;;;18.20;99.90;;;;;;4834221;29;20861;-79
2021/07/22 04:42:50;;;;;;;3.58;2.88;;;18.40;99.90;;;;;;4845793;29;20962;-79
2021/07/22 04:45:45;;;;;;;3.08;2.78;;;18.50;99.90;;;;;;4829450;29;20420;-78
2021/07/22 04:48:34;;;;;;;4.63;3.50;;;18.40;99.90;;;;;;4855919;29;20420;-79
2021/07/22 04:51:35;;;;;;;3.00;2.70;;;18.50;99.90;;;;;;4859203;29;20750;-79
2021/07/22 04:54:15;;;;;;;4.07;3.55;;;18.50;99.90;;;;;;4856598;29;20474;-80
2021/07/22 04:57:21;;;;;;;4.45;3.92;;;18.60;99.90;;;;;;4860785;29;20427;-82
2021/07/22 05:00:17;;;;;;;3.10;2.90;;;18.50;99.90;;;;;;4794948;29;20460;-80
2021/07/22 05:07:34;;;;;;;3.55;3.25;;;18.40;99.90;;;;;;4770186;29;20432;-81
2021/07/22 05:11:10;;;;;;;4.40;3.90;;;18.50;99.90;;;;;;4734534;29;20517;-79
2021/07/22 05:15:24;;;;;;;3.75;3.45;;;18.40;99.90;;;;;;4762794;29;20424;-79
2021/07/22 05:19:11;;;;;;;3.97;3.55;;;18.60;99.90;;;;;;4730204;29;20488;-80
2021/07/22 05:27:19;;;;;;;3.47;3.17;;;18.60;99.90;;;;;;4822677;29;20425;-79
2021/07/22 05:31:07;;;;;;;4.03;3.22;;;18.70;99.90;;;;;;4835533;29;20419;-79
2021/07/22 05:34:27;;;;;;;4.88;3.65;;;18.70;99.90;;;;;;4829012;29;20436;-80
2021/07/22 05:38:35;;;;;;;3.47;3.17;;;18.70;99.90;;;;;;4824990;29;20538;-82
2021/07/22 05:42:42;;;;;;;3.58;3.28;;;18.80;99.90;;;;;;4810319;29;20498;-81
2021/07/22 05:46:22;;;;;;;4.30;3.90;;;18.90;99.90;;;;;;4781838;29;20470;-80
2021/07/22 05:50:17;;;;;;;3.03;2.83;;;19.00;99.90;;;;;;4848464;29;20993;-81
2021/07/22 05:53:06;;;;;;;4.47;3.05;;;19.00;99.90;;;;;;4838275;29;20425;-80
2021/07/22 05:56:37;;;;;;;4.90;3.85;;;19.00;99.90;;;;;;4810307;29;20804;-80
2021/07/22 05:59:58;;;;;;;4.50;3.65;;;19.20;99.90;;;;;;4850950;29;20418;-80
2021/07/22 06:03:33;;;;;;;;;;;;;;;;;;;;;
2021/07/22 06:07:15;;;;;;;3.78;3.47;;;19.20;99.90;;;;;;4825674;29;20511;-80
2021/07/22 06:11:24;;;;;;;4.90;4.35;;;19.20;99.90;;;;;;4818284;29;20434;-81
2021/07/22 06:18:57;;;;;;;6.13;4.40;;;19.30;99.90;;;;;;4842271;29;20438;-82
2021/07/22 06:22:58;;;;;;;3.93;3.63;;;19.20;99.90;;;;;;4760126;29;20422;-80
2021/07/22 06:26:46;;;;;;;4.63;4.13;;;19.30;99.90;;;;;;4822959;29;20422;-80
2021/07/22 06:33:33;;;;;;;5.70;4.35;;;19.40;99.90;;;;;;4795903;29;20426;-80
2021/07/22 06:37:48;;;;;;;3.85;3.55;;;19.50;99.90;;;;;;4802522;29;20963;-80
2021/07/22 06:41:05;;;;;;;3.80;3.40;;;19.60;99.90;;;;;;4792752;29;20432;-79
2021/07/22 06:44:46;;;;;;;6.00;4.60;;;19.70;99.90;;;;;;4862793;29;20438;-80
2021/07/22 06:49:19;;;;;;;6.30;4.50;;;19.80;99.90;;;;;;4833371;29;20432;-80
2021/07/22 06:52:14;;;;;;;4.47;3.97;;;19.80;99.90;;;;;;4852188;29;20486;-80
2021/07/22 06:55:26;;;;;;;4.15;3.75;;;19.90;99.90;;;;;;4834841;29;20929;-81
2021/07/22 06:58:48;;;;;;;5.25;3.90;;;19.90;99.90;;;;;;4786025;29;20449;-80
2021/07/22 07:07:20;;;;;;;4.43;4.03;;;19.90;99.90;;;;;;4849340;29;20825;-80
2021/07/22 07:11:20;;;;;;;4.65;4.15;;;20.10;99.90;;;;;;4801291;29;20786;-80
2021/07/22 07:15:18;;;;;;;5.85;4.45;;;20.10;99.90;;;;;;4828472;29;20431;-80
2021/07/22 07:18:58;;;;;;;5.00;4.47;;;20.00;99.90;;;;;;4796201;29;20882;-80
2021/07/22 07:31:17;;;;;;;4.77;4.07;;;20.40;99.90;;;;;;4795198;29;21230;-81
2021/07/22 07:35:23;;;;;;;5.22;4.72;;;20.50;99.90;;;;;;4807618;29;20452;-81
2021/07/22 07:39:16;;;;;;;5.00;4.25;;;20.60;99.90;;;;;;4810781;29;20441;-80
2021/07/22 07:43:09;;;;;;;5.93;5.30;;;20.80;99.90;;;;;;4777938;29;20856;-81
2021/07/22 07:46:51;;;;;;;5.63;4.77;;;21.00;99.90;;;;;;4810673;29;20437;-81
2021/07/22 07:50:28;;;;;;;5.75;4.35;;;20.80;99.90;;;;;;4785540;29;20439;-80
2021/07/22 07:54:12;;;;;;;5.00;4.53;;;21.10;99.90;;;;;;4772844;29;20553;-81
2021/07/22 07:57:20;;;;;;;8.35;5.15;;;21.30;99.90;;;;;;4825939;29;20431;-81
2021/07/22 08:01:02;;;;;;;5.25;4.68;;;21.20;99.90;;;;;;4784470;29;20429;-81
2021/07/22 08:04:50;;;;;;;6.82;4.57;;;21.00;99.90;;;;;;4777828;29;20432;-81
2021/07/22 08:09:22;;;;;;;5.50;4.50;;;21.00;99.90;;;;;;4831903;29;20417;-81
2021/07/22 08:13:36;;;;;;;5.53;4.80;;;20.90;99.90;;;;;;4796134;29;20544;-81
2021/07/22 08:17:53;;;;;;;6.00;4.43;;;21.30;99.90;;;;;;4848534;29;20578;-81
2021/07/22 08:21:47;;;;;;;6.93;4.30;;;21.50;99.90;;;;;;4801936;29;20408;-81
2021/07/22 08:25:59;;;;;;;4.30;3.90;;;21.60;99.90;;;;;;4780367;29;20407;-81
2021/07/22 08:30:03;;;;;;;5.13;4.63;;;21.80;99.90;;;;;;4720482;29;20439;-81
2021/07/22 08:34:12;;;;;;;5.30;4.40;;;21.70;99.90;;;;;;4770338;29;20520;-82
2021/07/22 08:38:45;;;;;;;4.00;3.70;;;22.00;99.90;;;;;;4801047;29;20533;-81
2021/07/22 08:46:54;;;;;;;6.10;4.88;;;22.30;99.90;;;;;;4904647;29;20425;-81
2021/07/22 08:51:10;;;;;;;4.40;4.00;;;22.40;99.90;;;;;;4856898;29;20419;-81
2021/07/22 08:55:35;;;;;;;5.90;4.27;;;22.70;99.90;;;;;;4882884;29;20405;-81
2021/07/22 18:00:48;;;;;;;3.20;2.90;;;24.90;99.90;;;;;;5036888;27;20964;-69
2021/07/22 18:03:14;;;;;;;3.67;3.35;;;24.60;99.90;;;;;;5056618;28;20404;-67
2021/07/22 18:05:40;;;;;;;3.43;3.13;;;24.30;99.90;;;;;;5034908;28;20400;-68
2021/07/22 18:08:06;;;;;;;3.55;2.85;;;24.30;99.90;;;;;;5026955;28;20420;-68
2021/07/22 18:10:31;;;;;;;3.20;2.90;;;24.30;99.90;;;;;;5019877;28;21189;-68
2021/07/22 18:12:57;;;;;;;3.20;2.90;;;24.20;99.90;;;;;;5030103;28;20500;-68
2021/07/22 18:15:23;;;;;;;3.00;2.70;;;24.20;99.90;;;;;;4993631;28;20412;-67
2021/07/22 18:17:48;;;;;;;3.10;2.80;;;24.20;99.90;;;;;;5015728;28;21199;-68
2021/07/22 18:20:14;;;;;;;3.38;3.08;;;24.20;99.90;;;;;;5048091;28;20412;-68
2021/07/22 18:22:41;;;;;;;4.57;3.75;;;24.20;99.90;;;;;;5030211;28;22175;-68
2021/07/22 18:25:07;;;;;;;3.63;3.17;;;24.10;99.90;;;;;;5044393;28;20875;-68
2021/07/22 18:27:34;;;;;;;4.68;3.42;;;24.10;99.90;;;;;;5006905;28;20406;-68
2021/07/22 18:30:00;;;;;;;3.03;2.72;;;23.90;99.90;;;;;;5047073;28;20402;-68
2021/07/22 18:32:50;;;;;;;3.60;3.30;;;23.80;99.90;;;;;;5057450;28;20421;-68
2021/07/22 18:35:27;;;;;;;2.90;2.70;;;23.70;99.90;;;;;;5041072;28;20750;-67
2021/07/22 18:37:52;;;;;;;5.40;3.00;;;23.50;99.90;;;;;;5026508;28;20802;-68
2021/07/22 18:40:21;;;;;;;3.00;2.80;;;23.40;99.90;;;;;;5019674;28;20404;-68
2021/07/22 18:42:47;;;;;;;2.85;2.63;;;23.30;99.90;;;;;;5025011;28;20414;-68
2021/07/22 18:45:13;;;;;;;3.10;2.63;;;23.30;99.90;;;;;;5017386;28;20400;-69
2021/07/22 18:47:39;;;;;;;2.90;2.70;;;23.20;99.90;;;;;;5002468;28;20459;-68
2021/07/22 18:50:05;;;;;;;6.40;3.40;;;23.20;99.90;;;;;;5003621;28;20454;-68
2021/07/22 18:52:31;;;;;;;2.77;2.43;;;23.20;99.90;;;;;;5018161;28;20454;-68
2021/07/22 18:54:57;;;;;;;3.67;2.95;;;23.10;99.90;;;;;;5001754;28;21131;-68
2021/07/22 18:57:23;;;;;;;5.13;2.60;;;23.00;99.90;;;;;;5016378;28;20462;-68
2021/07/22 18:59:49;;;;;;;5.50;2.85;;;22.90;99.90;;;;;;4978641;28;20460;-68
2021/07/22 19:02:14;;;;;;;6.60;2.60;;;22.90;99.90;;;;;;5016852;28;20432;-68
2021/07/22 19:04:41;;;;;;;3.95;3.17;;;22.80;99.90;;;;;;5018435;28;20919;-68
2021/07/22 19:07:07;;;;;;;6.88;3.40;;;22.60;99.90;;;;;;5002353;28;20392;-68
2021/07/22 19:09:32;;;;;;;3.67;2.97;;;22.50;99.90;;;;;;5000082;28;20403;-67
2021/07/22 19:11:58;;;;;;;3.50;3.08;;;22.30;99.90;;;;;;5005851;28;20409;-67
2021/07/22 19:14:26;;;;;;;3.53;2.92;;;22.20;99.90;;;;;;5008619;28;21306;-67
2021/07/22 19:16:52;;;;;;;8.18;3.42;;;22.20;99.90;;;;;;5002586;28;20816;-68
2021/07/22 19:19:17;;;;;;;7.95;3.00;;;22.10;99.90;;;;;;4994471;28;20494;-68
2021/07/22 19:21:43;;;;;;;3.20;2.90;;;22.00;99.90;;;;;;4993664;28;21113;-67
2021/07/22 19:24:09;;;;;;;3.08;2.85;;;22.00;99.90;;;;;;5006449;28;20529;-67
2021/07/22 19:26:35;;;;;;;2.70;2.50;;;21.90;99.90;;;;;;5009973;28;20417;-67
2021/07/22 19:29:02;;;;;;;3.38;2.47;;;21.80;99.90;;;;;;5024348;28;20403;-67
2021/07/22 19:31:29;;;;;;;4.32;3.08;;;21.70;99.90;;;;;;5037921;28;20399;-67
2021/07/22 19:33:55;;;;;;;3.05;2.85;;;21.60;99.90;;;;;;5009932;28;20457;-67
2021/07/22 19:36:20;;;;;;;3.10;2.80;;;21.40;99.90;;;;;;4998592;28;20407;-68
2021/07/22 19:38:46;;;;;;;3.55;3.00;;;21.30;99.90;;;;;;5046135;28;20814;-68
2021/07/22 19:41:12;;;;;;;3.30;2.88;;;21.20;99.90;;;;;;5023223;28;20393;-67
2021/07/22 19:43:41;;;;;;;2.72;2.53;;;21.10;99.90;;;;;;4997300;28;20844;-67
2021/07/22 19:46:06;;;;;;;2.53;2.33;;;21.10;99.90;;;;;;5017852;28;20399;-67
2021/07/22 19:48:32;;;;;;;2.80;2.53;;;21.00;99.90;;;;;;4988757;28;20464;-67
2021/07/22 19:50:58;;;;;;;2.65;2.45;;;20.90;99.90;;;;;;4988355;28;20475;-67
2021/07/22 19:53:24;;;;;;;3.93;3.43;;;20.80;99.90;;;;;;4982034;28;20398;-68
2021/07/22 19:55:50;;;;;;;3.63;2.83;;;20.60;99.90;;;;;;5015675;28;20405;-68
2021/07/22 19:58:15;;;;;;;2.40;2.20;;;20.60;99.90;;;;;;5023164;28;20425;-67
2021/07/22 20:00:41;;;;;;;4.40;2.90;;;20.50;99.90;;;;;;5044024;28;20415;-67
2021/07/22 20:03:07;;;;;;;5.00;2.60;;;20.40;99.90;;;;;;5005437;28;20426;-67
2021/07/22 20:05:32;;;;;;;3.20;2.90;;;20.30;99.90;;;;;;4982692;28;20402;-68
2021/07/22 20:07:58;;;;;;;3.58;3.28;;;20.20;99.90;;;;;;5021268;28;20439;-67
2021/07/22 20:10:24;;;;;;;3.20;2.50;;;20.10;99.90;;;;;;4996751;28;20406;-67
2021/07/22 20:12:49;;;;;;;3.17;2.83;;;20.00;99.90;;;;;;5028738;28;20430;-67
2021/07/22 20:15:15;;;;;;;4.97;3.22;;;20.00;99.90;;;;;;5002429;28;20401;-67
2021/07/22 20:17:42;;;;;;;3.43;3.03;;;19.90;99.90;;;;;;5025170;28;20962;-67
2021/07/22 20:20:09;;;;;;;5.70;3.60;;;19.90;99.90;;;;;;4992522;28;20448;-67
2021/07/22 20:22:35;;;;;;;2.95;2.65;;;19.80;99.90;;;;;;4999620;28;20393;-67
2021/07/22 20:25:01;;;;;;;3.70;3.00;;;19.70;99.90;;;;;;5011682;28;20401;-67
2021/07/22 20:27:27;;;;;;;3.33;3.03;;;19.60;99.90;;;;;;4994955;28;20484;-67
2021/07/22 20:29:54;;;;;;;3.55;3.25;;;19.60;99.90;;;;;;4996938;28;20949;-67
2021/07/22 20:32:20;;;;;;;4.78;3.78;;;19.50;99.90;;;;;;4995324;28;20407;-67
2021/07/22 20:34:45;;;;;;;4.53;3.60;;;19.40;99.90;;;;;;5045150;28;20754;-66
2021/07/22 20:37:11;;;;;;;3.42;3.13;;;19.40;99.90;;;;;;4999953;28;20471;-67
2021/07/22 20:39:37;;;;;;;4.10;3.70;;;19.30;99.90;;;;;;5038427;28;20421;-67
2021/07/22 20:42:03;;;;;;;2.78;2.58;;;19.30;99.90;;;;;;5014961;28;20389;-67
2021/07/22 20:44:28;;;;;;;4.73;3.50;;;19.30;99.90;;;;;;5032597;28;20476;-67
2021/07/22 20:46:54;;;;;;;3.13;2.80;;;19.30;99.90;;;;;;5015818;28;20436;-67
2021/07/22 20:49:20;;;;;;;3.23;2.93;;;19.30;99.90;;;;;;5016119;28;21105;-67
2021/07/22 20:51:46;;;;;;;3.50;3.17;;;19.20;99.90;;;;;;5003464;28;20973;-67
2021/07/22 20:54:12;;;;;;;4.32;3.22;;;19.20;99.90;;;;;;5027406;28;20952;-67
2021/07/22 20:56:37;;;;;;;3.15;2.85;;;19.20;99.90;;;;;;4986295;28;20420;-67
2021/07/22 20:59:04;;;;;;;3.42;3.13;;;19.20;99.90;;;;;;5020160;28;20424;-67
2021/07/22 21:01:29;;;;;;;4.57;3.47;;;19.20;99.90;;;;;;4994394;28;20877;-67
2021/07/22 21:03:57;;;;;;;3.13;2.83;;;19.10;99.90;;;;;;4976315;28;20402;-68
2021/07/22 21:06:24;;;;;;;3.55;3.25;;;19.10;99.90;;;;;;5003295;28;20412;-68
2021/07/22 21:08:51;;;;;;;3.28;2.97;;;19.10;99.90;;;;;;5001338;28;20419;-67
2021/07/22 21:11:16;;;;;;;4.57;2.95;;;19.10;99.90;;;;;;4971077;28;20415;-67
2021/07/22 21:13:42;;;;;;;6.67;3.20;;;19.10;99.90;;;;;;4985972;28;20413;-69
2021/07/22 21:16:08;;;;;;;3.17;2.88;;;19.10;99.90;;;;;;5003248;28;20413;-67
2021/07/22 21:18:33;;;;;;;3.42;3.13;;;19.10;99.90;;;;;;4993918;28;20407;-67
2021/07/22 21:20:59;;;;;;;3.93;3.43;;;19.10;99.90;;;;;;5010658;28;20402;-67
2021/07/22 21:23:25;;;;;;;5.47;3.22;;;19.10;99.90;;;;;;4997228;28;21108;-67
2021/07/22 21:25:51;;;;;;;3.23;3.00;;;19.10;99.90;;;;;;5018242;28;20447;-68
2021/07/22 21:28:16;;;;;;;3.65;3.03;;;19.10;99.90;;;;;;5010097;28;20399;-67
2021/07/22 21:30:42;;;;;;;3.47;3.10;;;19.10;99.90;;;;;;5021322;28;20403;-68
2021/07/22 21:33:08;;;;;;;3.90;3.20;;;19.00;99.90;;;;;;5013755;28;20428;-67
2021/07/22 21:35:35;;;;;;;3.60;2.83;;;19.00;99.90;;;;;;5027409;28;20747;-67
2021/07/22 21:38:01;;;;;;;3.80;3.40;;;19.00;99.90;;;;;;4988514;28;20427;-67
2021/07/22 21:40:26;;;;;;;3.83;3.07;;;18.90;99.90;;;;;;5006300;28;20423;-67
2021/07/22 21:42:52;;;;;;;4.53;2.80;;;18.90;99.90;;;;;;5021100;28;20400;-67
2021/07/22 21:45:19;;;;;;;4.53;3.40;;;19.00;99.90;;;;;;5003774;28;20780;-69
2021/07/22 21:47:45;;;;;;;3.05;2.85;;;19.10;99.90;;;;;;4989064;28;20514;-69
2021/07/22 21:50:10;;;;;;;3.10;2.90;;;19.10;99.90;;;;;;5011064;28;20407;-69
2021/07/22 21:52:37;;;;;;;2.70;2.50;;;19.10;99.90;;;;;;5032364;28;20403;-69
2021/07/22 21:55:04;;;;;;;5.13;3.72;;;19.10;99.90;;;;;;5007094;28;20404;-69
2021/07/22 21:57:29;;;;;;;3.10;2.80;;;19.10;99.90;;;;;;5013659;28;20406;-69
2021/07/22 21:59:55;;;;;;;3.70;3.30;;;19.00;99.90;;;;;;4999817;28;20770;-69
2021/07/22 22:02:21;;;;;;;3.03;2.72;;;19.10;99.90;;;;;;5005317;28;20389;-69
2021/07/22 22:04:47;;;;;;;4.57;3.08;;;19.10;99.90;;;;;;5008621;28;20403;-69
2021/07/22 22:07:13;;;;;;;3.75;3.40;;;19.10;99.90;;;;;;5016942;28;20389;-68
2021/07/22 22:09:39;;;;;;;2.95;2.75;;;19.00;99.90;;;;;;4969911;28;20406;-69
2021/07/22 22:12:06;;;;;;;3.90;3.55;;;19.00;99.90;;;;;;5005043;28;20819;-69
2021/07/22 22:14:33;;;;;;;3.30;2.80;;;19.10;99.90;;;;;;5023424;28;20814;-69
2021/07/22 22:16:59;;;;;;;2.75;2.55;;;19.00;99.90;;;;;;4987969;28;20538;-69
2021/07/22 22:19:25;;;;;;;3.17;2.88;;;19.00;99.90;;;;;;5028151;28;20895;-69
2021/07/22 22:21:51;;;;;;;7.40;3.75;;;19.00;99.90;;;;;;5011042;28;20387;-69
2021/07/22 22:24:16;;;;;;;7.80;3.30;;;19.00;99.90;;;;;;5033980;28;20422;-69
2021/07/22 22:26:42;;;;;;;2.92;2.63;;;18.90;99.90;;;;;;5013721;28;20393;-69
2021/07/22 22:29:08;;;;;;;2.80;2.60;;;18.90;99.90;;;;;;5015937;28;20395;-69
2021/07/22 22:31:33;;;;;;;3.55;3.10;;;18.90;99.90;;;;;;5013613;28;20400;-69
2021/07/22 22:34:00;;;;;;;3.53;3.23;;;18.90;99.90;;;;;;5008620;28;20413;-69
2021/07/22 22:36:28;;;;;;;4.28;3.88;;;18.90;99.90;;;;;;5013084;28;20494;-69
2021/07/22 22:38:55;;;;;;;2.80;2.60;;;18.90;99.90;;;;;;5003284;28;20832;-68
2021/07/22 22:41:21;;;;;;;2.75;2.53;;;18.80;99.90;;;;;;4957485;28;20449;-69
2021/07/22 22:43:47;;;;;;;2.90;2.60;;;18.90;99.90;;;;;;5010316;28;20950;-68
2021/07/22 22:46:14;;;;;;;3.42;3.13;;;18.90;99.90;;;;;;5056036;28;20426;-69
2021/07/22 22:48:40;;;;;;;5.05;3.78;;;18.90;99.90;;;;;;5023760;28;20451;-68
2021/07/22 22:51:06;;;;;;;4.17;3.77;;;18.90;99.90;;;;;;5008411;28;20396;-69
2021/07/22 22:53:32;;;;;;;3.55;2.70;;;18.80;99.90;;;;;;5026342;28;20414;-69
2021/07/22 22:55:59;;;;;;;3.03;2.78;;;18.80;99.90;;;;;;5005384;28;20474;-69
2021/07/22 22:58:25;;;;;;;4.05;3.47;;;18.80;99.90;;;;;;5014199;28;20407;-69
2021/07/22 23:00:50;;;;;;;5.47;3.60;;;18.80;99.90;;;;;;4993804;28;20395;-69
2021/07/22 23:03:16;;;;;;;2.97;2.70;;;18.70;99.90;;;;;;5008730;28;20876;-69
2021/07/22 23:05:42;;;;;;;2.80;2.60;;;18.60;99.90;;;;;;5000771;28;20423;-69
2021/07/22 23:08:07;;;;;;;3.37;3.07;;;18.60;99.90;;;;;;5011613;28;20391;-69
2021/07/22 23:10:33;;;;;;;3.77;3.20;;;18.60;99.90;;;;;;5020449;28;20393;-69
2021/07/22 23:13:01;;;;;;;5.57;3.95;;;18.60;99.90;;;;;;4993666;28;20412;-68
2021/07/22 23:15:27;;;;;;;4.03;3.70;;;18.60;99.90;;;;;;5012260;28;20408;-68
2021/07/22 23:17:52;;;;;;;3.17;2.97;;;18.50;99.90;;;;;;5006279;28;20393;-68
2021/07/22 23:20:18;;;;;;;3.57;3.27;;;18.50;99.90;;;;;;5034118;28;20783;-69
2021/07/22 23:22:44;;;;;;;6.30;3.85;;;18.50;99.90;;;;;;5015603;28;20525;-68
2021/07/22 23:25:10;;;;;;;2.80;2.60;;;18.50;99.90;;;;;;5021284;28;20487;-68
2021/07/22 23:27:36;;;;;;;3.50;3.20;;;18.50;99.90;;;;;;5001036;28;20769;-68
2021/07/22 23:30:01;;;;;;;3.27;2.97;;;18.40;99.90;;;;;;5041433;28;20668;-68
2021/07/22 23:32:27;;;;;;;2.70;2.50;;;18.40;99.90;;;;;;5025387;28;20435;-68
2021/07/22 23:34:54;;;;;;;3.20;2.90;;;18.40;99.90;;;;;;4993490;28;21163;-68
2021/07/22 23:37:19;;;;;;;3.57;3.27;;;18.40;99.90;;;;;;5015823;28;20404;-68
2021/07/22 23:39:45;;;;;;;5.30;3.55;;;18.40;99.90;;;;;;5023911;28;20466;-68
2021/07/22 23:42:11;;;;;;;3.17;2.83;;;18.40;99.90;;;;;;5031306;28;20448;-68